Kirsten H — WY7979 — position and weather

sailwx.info

Track history (hours):
 
Tides and Currents Weather Stations Pressure Air Temp Water Temp Dewpoint Dewpoint Depression Visibility Wind Speed Wind Dir Waves Ship Positions

Kirsten H

Owner: BOYER TOWING, KETCHIKAN, AK. More information available from US FCC via Universal Licensing System and Coast Guard Vessel Documentation Center.

Last reported at 2016-Jul-29 23:33 UTC. Time now 2016-Jul-29 23:39 UTC.
Position N 47°43' W 122°26'.

Length 22 m; draft 3.7 m.

Type: Tow > 200 m length. MMSI: 366623050.

Date/timePositionNaut miles runAvg speedWind from/ knotsBaromVisibWave heightAir tempDewpointWater temp
2016-Jul-29 23:33N 47°43' W 122°26'7 6.9
2016-Jul-29 22:33N 47°37' W 122°27'6 6.4
2016-Jul-29 21:33N 47°30' W 122°29'7 6.9
2016-Jul-29 20:33N 47°24' W 122°32'7 5.6
2016-Jul-29 19:22N 47°17' W 122°32'2 2.5
2016-Jul-29 18:32N 47°15' W 122°34'5 5.4
2016-Jul-29 17:33N 47°11' W 122°38'3 0.9
2016-Jul-29 14:18N 47°08' W 122°39'1 0.5
2016-Jul-29 11:28N 47°09' W 122°39'2 1.9
2016-Jul-29 10:33N 47°11' W 122°38'1 1.1
2016-Jul-29 09:33N 47°12' W 122°37'3 2.6
2016-Jul-29 08:33N 47°09' W 122°39'1 1.1
2016-Jul-29 07:33N 47°11' W 122°39'3 2.5
2016-Jul-29 06:26N 47°13' W 122°36'5 5.6
2016-Jul-29 05:33N 47°17' W 122°33'8 7.8
2016-Jul-29 04:33N 47°25' W 122°32'7 7.4
2016-Jul-29 03:33N 47°32' W 122°27'5 5.1
2016-Jul-29 02:32N 47°35' W 122°22'3 2.5
2016-Jul-29 01:22N 47°32' W 122°20'3 3.9
2016-Jul-29 00:32N 47°35' W 122°21'0 0.0
2016-Jul-28 23:33N 47°35' W 122°21'3 2.8
2016-Jul-28 22:23N 47°32' W 122°20'0 0.0
2016-Jul-28 21:33N 47°32' W 122°20'0 0.0
2016-Jul-28 20:33N 47°32' W 122°20'0 0.0
2016-Jul-28 19:32N 47°32' W 122°20'0 0.0
2016-Jul-28 18:33N 47°32' W 122°20'0 0.0
2016-Jul-28 17:33N 47°32' W 122°20'0 0.0
2016-Jul-28 16:33N 47°32' W 122°20'  
2016-Jul-20 18:18N 47°32' W 122°20'0 0.0
2016-Jul-20 17:33N 47°32' W 122°20'0 0.0
2016-Jul-20 16:33N 47°32' W 122°20'0 0.0
2016-Jul-20 15:33N 47°32' W 122°20'0 0.0
2016-Jul-20 14:33N 47°32' W 122°20'0 0.0
2016-Jul-20 13:33N 47°32' W 122°20'0 0.0
2016-Jul-20 12:33N 47°32' W 122°20'0 0.0
2016-Jul-20 11:34N 47°32' W 122°20'0 0.0
2016-Jul-20 10:33N 47°32' W 122°20'0 0.0
2016-Jul-20 09:33N 47°32' W 122°20'0 0.0
2016-Jul-20 08:33N 47°32' W 122°20'0 0.0
2016-Jul-20 07:33N 47°32' W 122°20'0 0.0
2016-Jul-20 06:33N 47°32' W 122°20'0 0.0
2016-Jul-20 05:34N 47°32' W 122°20'0 0.0
2016-Jul-20 04:33N 47°32' W 122°20'0 0.0
2016-Jul-20 03:33N 47°32' W 122°20'0 0.0
2016-Jul-20 02:33N 47°32' W 122°20'0 0.0
2016-Jul-20 01:33N 47°32' W 122°20'0 0.0
2016-Jul-20 00:34N 47°32' W 122°20'0 0.1
2016-Jul-19 23:33N 47°32' W 122°20'0 0.0
2016-Jul-19 22:33N 47°32' W 122°20'  
Track history (hours):
 
Tides and Currents Weather Stations Pressure Air Temp Water Temp Dewpoint Dewpoint Depression Visibility Wind Speed Wind Dir Waves Ship Positions

Kirsten H

Owner: BOYER TOWING, KETCHIKAN, AK. More information available from US FCC via Universal Licensing System and Coast Guard Vessel Documentation Center.

Last reported at 2016-Jul-29 23:33 UTC. Time now 2016-Jul-29 23:39 UTC.
Position N 47°43' W 122°26'.

Length 22 m; draft 3.7 m.

Type: Tow > 200 m length. MMSI: 366623050.

Date/timePositionNaut miles runAvg speedWind from/ knotsBaromVisibWave heightAir tempDewpointWater temp
2016-Jul-29 23:33N 47°43' W 122°26'7 6.9
2016-Jul-29 22:33N 47°37' W 122°27'6 6.4
2016-Jul-29 21:33N 47°30' W 122°29'7 6.9
2016-Jul-29 20:33N 47°24' W 122°32'7 5.6
2016-Jul-29 19:22N 47°17' W 122°32'2 2.5
2016-Jul-29 18:32N 47°15' W 122°34'5 5.4
2016-Jul-29 17:33N 47°11' W 122°38'3 0.9
2016-Jul-29 14:18N 47°08' W 122°39'1 0.5
2016-Jul-29 11:28N 47°09' W 122°39'2 1.9
2016-Jul-29 10:33N 47°11' W 122°38'1 1.1
2016-Jul-29 09:33N 47°12' W 122°37'3 2.6
2016-Jul-29 08:33N 47°09' W 122°39'1 1.1
2016-Jul-29 07:33N 47°11' W 122°39'3 2.5
2016-Jul-29 06:26N 47°13' W 122°36'5 5.6
2016-Jul-29 05:33N 47°17' W 122°33'8 7.8
2016-Jul-29 04:33N 47°25' W 122°32'7 7.4
2016-Jul-29 03:33N 47°32' W 122°27'5 5.1
2016-Jul-29 02:32N 47°35' W 122°22'3 2.5
2016-Jul-29 01:22N 47°32' W 122°20'3 3.9
2016-Jul-29 00:32N 47°35' W 122°21'0 0.0
2016-Jul-28 23:33N 47°35' W 122°21'3 2.8
2016-Jul-28 22:23N 47°32' W 122°20'0 0.0
2016-Jul-28 21:33N 47°32' W 122°20'0 0.0
2016-Jul-28 20:33N 47°32' W 122°20'0 0.0
2016-Jul-28 19:32N 47°32' W 122°20'0 0.0
2016-Jul-28 18:33N 47°32' W 122°20'0 0.0
2016-Jul-28 17:33N 47°32' W 122°20'0 0.0
2016-Jul-28 16:33N 47°32' W 122°20'  
2016-Jul-20 18:18N 47°32' W 122°20'0 0.0
2016-Jul-20 17:33N 47°32' W 122°20'0 0.0
2016-Jul-20 16:33N 47°32' W 122°20'0 0.0
2016-Jul-20 15:33N 47°32' W 122°20'0 0.0
2016-Jul-20 14:33N 47°32' W 122°20'0 0.0
2016-Jul-20 13:33N 47°32' W 122°20'0 0.0
2016-Jul-20 12:33N 47°32' W 122°20'0 0.0
2016-Jul-20 11:34N 47°32' W 122°20'0 0.0
2016-Jul-20 10:33N 47°32' W 122°20'0 0.0
2016-Jul-20 09:33N 47°32' W 122°20'0 0.0
2016-Jul-20 08:33N 47°32' W 122°20'0 0.0
2016-Jul-20 07:33N 47°32' W 122°20'0 0.0
2016-Jul-20 06:33N 47°32' W 122°20'0 0.0
2016-Jul-20 05:34N 47°32' W 122°20'0 0.0
2016-Jul-20 04:33N 47°32' W 122°20'0 0.0
2016-Jul-20 03:33N 47°32' W 122°20'0 0.0
2016-Jul-20 02:33N 47°32' W 122°20'0 0.0
2016-Jul-20 01:33N 47°32' W 122°20'0 0.0
2016-Jul-20 00:34N 47°32' W 122°20'0 0.1
2016-Jul-19 23:33N 47°32' W 122°20'0 0.0
2016-Jul-19 22:33N 47°32' W 122°20'  

Dump ship's entire track history